Time;durP1;ratioP1;P1;durP2;ratioP2;P2;SDS_P1;SDS_P2;PMS_P1;PMS_P2;Temp;Humidity;BMP_temperature;BMP_pressure;BME280_temperature;BME280_humidity;BME280_pressure;Samples;Min_cycle;Max_cycle;Signal;HPM_P1;HPM_P2
2024/01/21 00:00:50;;;;;;;15.68;6.38;;;;;;;;;;5101813;28;20480;-67
2024/01/21 00:03:35;;;;;;;15.45;7.05;;;;;;;;;;5108157;28;20027;-65
2024/01/21 00:06:21;;;;;;;19.80;8.23;;;;;;;;;;5099546;28;20074;-67
2024/01/21 00:09:07;;;;;;;14.60;6.38;;;;;;;;;;5098516;28;20028;-67
2024/01/21 00:11:52;;;;;;;16.02;6.30;;;;;;;;;;5114933;28;20027;-67
2024/01/21 00:14:38;;;;;;;19.90;6.43;;;;;;;;;;5114689;28;20392;-67
2024/01/21 00:17:24;;;;;;;23.27;7.38;;;;;;;;;;5103928;28;20077;-67
2024/01/21 00:20:10;;;;;;;10.20;5.60;;;;;;;;;;5113503;28;20019;-66
2024/01/21 00:22:55;;;;;;;16.98;7.07;;;;;;;;;;5112714;28;20030;-67
2024/01/21 00:25:41;;;;;;;16.60;7.65;;;;;;;;;;5114638;28;20016;-67
2024/01/21 00:28:26;;;;;;;16.40;7.45;;;;;;;;;;5114068;28;20035;-67
2024/01/21 00:31:12;;;;;;;25.27;6.18;;;;;;;;;;5115079;28;20377;-67
2024/01/21 00:33:58;;;;;;;14.90;7.38;;;;;;;;;;5102891;28;20024;-67
2024/01/21 00:36:43;;;;;;;19.10;8.00;;;;;;;;;;5114021;28;20019;-67
2024/01/21 00:39:29;;;;;;;16.08;8.15;;;;;;;;;;5101181;28;20031;-67
2024/01/21 00:42:15;;;;;;;13.73;6.05;;;;;;;;;;5113640;28;20027;-67
2024/01/21 00:45:00;;;;;;;14.93;6.25;;;;;;;;;;5112242;28;20058;-67
2024/01/21 00:47:46;;;;;;;15.95;7.47;;;;;;;;;;5114047;28;20027;-67
2024/01/21 00:50:32;;;;;;;16.58;6.72;;;;;;;;;;5113592;28;20055;-67
2024/01/21 00:53:17;;;;;;;16.55;7.35;;;;;;;;;;5114799;28;20557;-67
2024/01/21 00:56:03;;;;;;;12.85;6.88;;;;;;;;;;5113828;28;20027;-67
2024/01/21 00:58:49;;;;;;;16.45;7.68;;;;;;;;;;5114636;28;20026;-67
2024/01/21 01:01:37;;;;;;;11.98;7.07;;;;;;;;;;5100433;28;20034;-67
2024/01/21 01:04:23;;;;;;;13.57;5.82;;;;;;;;;;5112876;28;20020;-67
2024/01/21 01:07:09;;;;;;;14.85;7.45;;;;;;;;;;5113399;28;20020;-67
2024/01/21 01:09:54;;;;;;;17.88;7.32;;;;;;;;;;5110902;28;20023;-67
2024/01/21 01:12:40;;;;;;;8.40;4.30;;;;;;;;;;5112034;28;20027;-67
2024/01/21 01:15:26;;;;;;;14.73;6.75;;;;;;;;;;5112281;28;20054;-67
2024/01/21 01:18:13;;;;;;;17.05;6.97;;;;;;;;;;5114277;28;20024;-67
2024/01/21 01:20:59;;;;;;;16.00;7.47;;;;;;;;;;5113670;28;20042;-67
2024/01/21 01:23:45;;;;;;;15.95;7.00;;;;;;;;;;5113998;28;20024;-67
2024/01/21 01:26:30;;;;;;;14.98;5.38;;;;;;;;;;5113811;28;20108;-67
2024/01/21 01:29:16;;;;;;;12.13;5.82;;;;;;;;;;5111687;28;20019;-67
2024/01/21 01:32:02;;;;;;;7.63;4.10;;;;;;;;;;5113762;28;20047;-67
2024/01/21 01:34:49;;;;;;;8.73;4.80;;;;;;;;;;5112566;28;20024;-67
2024/01/21 01:37:35;;;;;;;9.35;5.63;;;;;;;;;;5113626;28;20030;-67
2024/01/21 01:40:20;;;;;;;14.27;6.45;;;;;;;;;;5114289;28;20030;-67
2024/01/21 01:43:06;;;;;;;12.27;6.30;;;;;;;;;;5113459;28;20370;-67
2024/01/21 01:45:52;;;;;;;11.82;5.68;;;;;;;;;;5112930;28;20027;-67
2024/01/21 01:48:38;;;;;;;11.52;4.93;;;;;;;;;;5114404;28;20099;-67
2024/01/21 01:51:24;;;;;;;10.65;4.82;;;;;;;;;;5098747;28;20031;-67
2024/01/21 01:54:10;;;;;;;11.63;5.45;;;;;;;;;;5112625;28;20016;-66
2024/01/21 01:56:55;;;;;;;10.80;5.78;;;;;;;;;;5112520;28;20384;-67
2024/01/21 01:59:41;;;;;;;13.45;6.28;;;;;;;;;;5098062;28;20027;-67
2024/01/21 02:02:27;;;;;;;9.30;5.05;;;;;;;;;;5113176;28;20024;-67
2024/01/21 02:05:12;;;;;;;10.43;4.80;;;;;;;;;;5098315;28;20039;-67
2024/01/21 02:07:58;;;;;;;10.57;5.15;;;;;;;;;;5111777;28;20369;-67
2024/01/21 02:10:44;;;;;;;15.63;6.55;;;;;;;;;;5111922;28;20028;-67
2024/01/21 02:13:30;;;;;;;10.30;5.35;;;;;;;;;;5112739;28;20072;-67
2024/01/21 02:16:15;;;;;;;12.45;5.28;;;;;;;;;;5114921;28;20088;-67
2024/01/21 02:19:04;;;;;;;12.32;4.43;;;;;;;;;;5117475;28;20023;-67
2024/01/21 02:21:49;;;;;;;11.10;5.00;;;;;;;;;;5101409;28;20077;-67
2024/01/21 02:24:35;;;;;;;10.57;3.78;;;;;;;;;;5116229;28;20034;-67
2024/01/21 02:27:21;;;;;;;11.73;4.88;;;;;;;;;;5115483;28;20055;-67
2024/01/21 02:30:07;;;;;;;11.40;5.10;;;;;;;;;;5115313;28;20064;-67
2024/01/21 02:32:52;;;;;;;11.43;4.88;;;;;;;;;;5116359;28;20015;-67
2024/01/21 02:35:38;;;;;;;10.63;4.50;;;;;;;;;;5114923;28;20024;-67
2024/01/21 02:38:24;;;;;;;10.95;5.57;;;;;;;;;;5104006;28;20557;-67
2024/01/21 02:41:09;;;;;;;7.75;4.45;;;;;;;;;;5105360;28;20036;-67
2024/01/21 02:43:55;;;;;;;10.57;4.38;;;;;;;;;;5094316;28;20040;-67
2024/01/21 02:46:42;;;;;;;8.68;3.88;;;;;;;;;;5097182;28;20054;-67
2024/01/21 02:49:28;;;;;;;8.00;4.75;;;;;;;;;;5116584;28;20387;-67
2024/01/21 02:52:14;;;;;;;6.38;3.80;;;;;;;;;;5097629;28;20110;-67
2024/01/21 02:55:00;;;;;;;5.05;2.97;;;;;;;;;;5095627;28;20108;-67
2024/01/21 02:57:45;;;;;;;6.88;3.40;;;;;;;;;;5095034;28;20063;-67
2024/01/21 03:00:31;;;;;;;7.13;4.63;;;;;;;;;;5099555;22;20076;-71
2024/01/21 03:03:16;;;;;;;4.55;3.10;;;;;;;;;;5075334;28;20111;-71
2024/01/21 03:06:03;;;;;;;4.35;3.28;;;;;;;;;;5070145;28;20471;-71
2024/01/21 03:08:48;;;;;;;7.45;3.22;;;;;;;;;;5058300;28;20409;-71
2024/01/21 03:11:36;;;;;;;8.85;3.90;;;;;;;;;;5073223;28;20074;-71
2024/01/21 03:14:21;;;;;;;12.27;3.60;;;;;;;;;;5060073;28;20017;-71
2024/01/21 03:17:08;;;;;;;6.18;3.58;;;;;;;;;;5074204;28;20029;-71
2024/01/21 03:19:53;;;;;;;6.78;3.47;;;;;;;;;;5060877;28;20027;-69
2024/01/21 03:22:39;;;;;;;4.65;3.42;;;;;;;;;;5073979;28;20104;-69
2024/01/21 03:25:24;;;;;;;5.25;2.95;;;;;;;;;;5070428;28;20016;-69
2024/01/21 03:28:10;;;;;;;5.05;3.13;;;;;;;;;;5056778;28;20582;-69
2024/01/21 03:30:56;;;;;;;6.25;2.92;;;;;;;;;;5074123;28;20031;-69
2024/01/21 03:33:41;;;;;;;5.55;3.08;;;;;;;;;;5071883;28;20028;-69
2024/01/21 03:36:27;;;;;;;9.60;3.33;;;;;;;;;;5067619;28;20383;-69
2024/01/21 03:39:12;;;;;;;8.32;3.40;;;;;;;;;;5061411;28;20036;-69
2024/01/21 03:41:58;;;;;;;5.07;3.08;;;;;;;;;;5068289;28;20029;-69
2024/01/21 03:44:46;;;;;;;4.68;2.50;;;;;;;;;;5073056;28;20064;-68
2024/01/21 03:47:32;;;;;;;3.63;2.30;;;;;;;;;;5073569;28;20020;-69
2024/01/21 03:50:20;;;;;;;5.18;2.33;;;;;;;;;;5073903;28;20111;-68
2024/01/21 03:53:06;;;;;;;2.85;2.10;;;;;;;;;;5073734;28;20016;-69
2024/01/21 03:55:51;;;;;;;4.50;2.28;;;;;;;;;;5073860;28;20024;-69
2024/01/21 03:58:38;;;;;;;4.93;3.13;;;;;;;;;;5073206;28;20024;-69
2024/01/21 04:01:23;;;;;;;4.68;2.83;;;;;;;;;;5073397;28;20028;-68
2024/01/21 04:04:10;;;;;;;6.68;2.58;;;;;;;;;;5074020;28;20085;-69
2024/01/21 04:06:56;;;;;;;5.15;3.10;;;;;;;;;;5066008;28;20402;-69
2024/01/21 04:09:41;;;;;;;4.63;2.88;;;;;;;;;;5066267;28;20029;-69
2024/01/21 04:12:28;;;;;;;4.35;2.80;;;;;;;;;;5073833;28;20055;-69
2024/01/21 04:15:14;;;;;;;3.30;2.50;;;;;;;;;;5071145;28;20020;-69
2024/01/21 04:18:00;;;;;;;3.80;2.83;;;;;;;;;;5056976;28;20108;-69
2024/01/21 04:20:45;;;;;;;5.15;2.83;;;;;;;;;;5057378;28;20027;-69
2024/01/21 04:23:31;;;;;;;5.57;2.92;;;;;;;;;;5072985;28;20035;-69
2024/01/21 04:26:17;;;;;;;5.30;2.90;;;;;;;;;;5073190;28;20107;-69
2024/01/21 04:29:02;;;;;;;6.13;3.28;;;;;;;;;;5057301;28;20401;-69
2024/01/21 04:31:48;;;;;;;4.78;3.33;;;;;;;;;;5052435;28;20024;-69
2024/01/21 04:34:34;;;;;;;5.53;2.67;;;;;;;;;;5053158;28;20020;-68
2024/01/21 04:37:20;;;;;;;6.57;2.67;;;;;;;;;;5058976;28;20036;-69
2024/01/21 04:40:06;;;;;;;5.75;2.67;;;;;;;;;;5072620;28;20028;-69
2024/01/21 04:42:52;;;;;;;4.18;3.00;;;;;;;;;;5052821;28;20021;-69
2024/01/21 04:45:37;;;;;;;6.38;2.40;;;;;;;;;;5052613;28;20020;-69
2024/01/21 04:48:23;;;;;;;5.78;2.70;;;;;;;;;;5052635;28;20506;-68
2024/01/21 04:51:10;;;;;;;4.68;2.92;;;;;;;;;;5053021;28;20021;-69
2024/01/21 04:53:56;;;;;;;4.07;2.80;;;;;;;;;;5059159;28;20028;-69
2024/01/21 04:56:42;;;;;;;4.82;2.40;;;;;;;;;;5053327;28;20021;-69
2024/01/21 04:59:28;;;;;;;4.97;2.80;;;;;;;;;;5052465;28;20414;-68
2024/01/21 05:02:13;;;;;;;4.10;2.35;;;;;;;;;;5053414;28;20104;-68
2024/01/21 05:04:59;;;;;;;5.50;2.47;;;;;;;;;;5052995;28;20028;-69
2024/01/21 05:07:44;;;;;;;3.80;2.80;;;;;;;;;;5056102;28;20025;-69
2024/01/21 05:10:30;;;;;;;3.40;2.15;;;;;;;;;;5052624;28;20029;-69
2024/01/21 05:13:16;;;;;;;6.15;3.22;;;;;;;;;;5052226;28;20017;-68
2024/01/21 05:16:03;;;;;;;4.35;2.60;;;;;;;;;;5052662;28;20021;-69
2024/01/21 05:18:49;;;;;;;3.78;2.63;;;;;;;;;;5053320;28;20031;-69
2024/01/21 05:21:35;;;;;;;3.78;2.33;;;;;;;;;;5053084;28;20063;-69
2024/01/21 05:24:20;;;;;;;6.28;2.13;;;;;;;;;;5069244;28;20028;-69
2024/01/21 05:27:06;;;;;;;3.25;2.17;;;;;;;;;;5064319;28;20106;-68
2024/01/21 05:29:52;;;;;;;6.03;3.50;;;;;;;;;;5051941;28;20402;-69
2024/01/21 05:32:38;;;;;;;4.53;2.90;;;;;;;;;;5051809;28;20079;-68
2024/01/21 05:35:24;;;;;;;2.90;1.77;;;;;;;;;;5052959;28;20025;-69
2024/01/21 05:38:09;;;;;;;3.92;2.97;;;;;;;;;;5054213;28;20029;-69
2024/01/21 05:40:55;;;;;;;4.57;2.40;;;;;;;;;;5055360;28;20079;-69
2024/01/21 05:43:40;;;;;;;5.53;2.40;;;;;;;;;;5070747;28;20060;-69
2024/01/21 05:46:26;;;;;;;3.25;2.58;;;;;;;;;;5071454;28;20546;-68
2024/01/21 05:49:13;;;;;;;2.80;2.35;;;;;;;;;;5071842;28;20052;-69
2024/01/21 05:51:59;;;;;;;4.22;2.63;;;;;;;;;;5076418;28;20020;-69
2024/01/21 05:54:44;;;;;;;3.55;2.30;;;;;;;;;;5075368;28;20078;-69
2024/01/21 05:57:30;;;;;;;3.60;1.95;;;;;;;;;;5076343;28;20035;-68
2024/01/21 06:00:16;;;;;;;4.00;2.03;;;;;;;;;;5076170;28;20067;-69
2024/01/21 06:03:01;;;;;;;3.15;2.05;;;;;;;;;;5055757;28;20512;-69
2024/01/21 06:05:47;;;;;;;4.95;2.50;;;;;;;;;;5058841;28;20517;-69
2024/01/21 06:08:33;;;;;;;3.38;2.22;;;;;;;;;;5060307;28;20025;-69
2024/01/21 06:11:19;;;;;;;3.42;2.10;;;;;;;;;;5055386;28;20033;-68
2024/01/21 06:14:05;;;;;;;2.95;2.30;;;;;;;;;;5056471;28;20548;-69
2024/01/21 06:16:53;;;;;;;3.28;2.42;;;;;;;;;;5054959;28;20417;-69
2024/01/21 06:19:40;;;;;;;3.22;2.13;;;;;;;;;;5055374;28;20040;-68
2024/01/21 06:22:25;;;;;;;3.83;1.88;;;;;;;;;;5041302;28;20037;-69
2024/01/21 06:25:14;;;;;;;3.58;2.30;;;;;;;;;;5054130;28;20028;-69
2024/01/21 06:27:59;;;;;;;4.53;2.30;;;;;;;;;;5056980;28;20402;-68
2024/01/21 06:30:46;;;;;;;2.55;2.33;;;;;;;;;;5055204;28;20020;-69
2024/01/21 06:33:31;;;;;;;4.03;2.30;;;;;;;;;;5055796;28;20461;-68
2024/01/21 06:36:17;;;;;;;6.00;2.97;;;;;;;;;;5056476;28;20017;-68
2024/01/21 06:39:03;;;;;;;4.05;2.67;;;;;;;;;;5055379;28;20020;-69
2024/01/21 06:41:49;;;;;;;5.78;2.00;;;;;;;;;;5056392;28;20025;-68
2024/01/21 06:44:35;;;;;;;7.72;2.45;;;;;;;;;;5055395;28;20025;-68
2024/01/21 06:47:20;;;;;;;4.85;2.42;;;;;;;;;;5053891;28;20031;-69
2024/01/21 06:50:06;;;;;;;4.88;2.95;;;;;;;;;;5055981;28;20025;-68
2024/01/21 06:52:52;;;;;;;5.15;2.45;;;;;;;;;;5054696;28;20074;-68
2024/01/21 06:55:37;;;;;;;3.13;2.20;;;;;;;;;;5054739;28;20028;-69
2024/01/21 06:58:23;;;;;;;3.63;2.40;;;;;;;;;;5054816;28;20025;-68
2024/01/21 07:01:09;;;;;;;5.78;3.00;;;;;;;;;;5054422;28;20490;-69
2024/01/21 07:03:54;;;;;;;5.35;2.45;;;;;;;;;;5055224;28;20448;-68
2024/01/21 07:06:41;;;;;;;3.35;2.70;;;;;;;;;;5055427;28;20021;-68
2024/01/21 07:09:28;;;;;;;6.72;3.10;;;;;;;;;;5056694;28;20025;-68
2024/01/21 07:12:14;;;;;;;3.75;2.50;;;;;;;;;;5056285;28;20025;-68
2024/01/21 07:15:00;;;;;;;4.43;2.88;;;;;;;;;;5053917;28;20017;-69
2024/01/21 07:17:45;;;;;;;6.22;2.45;;;;;;;;;;5055636;28;20036;-68
2024/01/21 07:20:32;;;;;;;4.28;2.35;;;;;;;;;;5055663;28;20394;-68
2024/01/21 07:23:17;;;;;;;5.93;2.80;;;;;;;;;;5040052;28;20021;-69
2024/01/21 07:26:03;;;;;;;4.30;2.42;;;;;;;;;;5055795;28;20079;-69
2024/01/21 07:28:49;;;;;;;4.82;3.47;;;;;;;;;;5054375;28;20494;-68
2024/01/21 07:31:34;;;;;;;2.83;1.92;;;;;;;;;;5054559;28;20021;-69
2024/01/21 07:34:20;;;;;;;5.35;3.45;;;;;;;;;;5054449;28;20502;-68
2024/01/21 07:37:06;;;;;;;3.92;2.60;;;;;;;;;;5054605;28;20037;-69
2024/01/21 07:39:51;;;;;;;5.97;3.65;;;;;;;;;;5054964;28;20071;-69
2024/01/21 07:42:37;;;;;;;6.13;3.92;;;;;;;;;;5063080;28;20051;-69
2024/01/21 07:45:23;;;;;;;3.85;2.53;;;;;;;;;;5055171;28;20029;-69
2024/01/21 07:48:08;;;;;;;4.22;3.00;;;;;;;;;;5062163;28;20025;-72
2024/01/21 07:50:54;;;;;;;3.72;2.47;;;;;;;;;;5068184;28;20493;-71
2024/01/21 07:53:39;;;;;;;5.05;2.35;;;;;;;;;;5066945;28;20386;-71
2024/01/21 07:56:25;;;;;;;7.50;2.92;;;;;;;;;;5053208;28;20032;-72
2024/01/21 07:59:11;;;;;;;3.97;2.50;;;;;;;;;;5053599;28;20057;-71
2024/01/21 08:01:56;;;;;;;6.47;3.00;;;;;;;;;;5053316;28;20025;-71
2024/01/21 08:04:42;;;;;;;4.18;2.80;;;;;;;;;;5055294;28;20029;-72
2024/01/21 08:07:28;;;;;;;5.03;2.42;;;;;;;;;;5055521;28;20028;-71
2024/01/21 08:10:14;;;;;;;7.28;2.90;;;;;;;;;;5058824;28;20040;-68
2024/01/21 08:13:00;;;;;;;7.22;3.10;;;;;;;;;;5052001;28;20749;-69
2024/01/21 08:15:46;;;;;;;3.63;2.22;;;;;;;;;;5051728;28;20100;-69
2024/01/21 08:18:31;;;;;;;3.42;2.13;;;;;;;;;;5053563;28;20036;-69
2024/01/21 08:21:17;;;;;;;3.00;2.20;;;;;;;;;;5056210;28;20033;-69
2024/01/21 08:24:03;;;;;;;4.13;2.45;;;;;;;;;;5057989;28;20393;-69
2024/01/21 08:26:49;;;;;;;3.42;2.50;;;;;;;;;;5055939;28;20108;-69
2024/01/21 08:29:36;;;;;;;5.22;2.50;;;;;;;;;;5047860;28;20091;-69
2024/01/21 08:32:22;;;;;;;4.20;2.67;;;;;;;;;;5060977;28;20028;-69
2024/01/21 08:35:08;;;;;;;5.43;2.50;;;;;;;;;;5054976;28;20457;-69
2024/01/21 08:37:53;;;;;;;2.67;2.42;;;;;;;;;;5065326;28;20100;-69
2024/01/21 08:40:39;;;;;;;3.45;2.22;;;;;;;;;;5044985;28;20036;-69
2024/01/21 08:43:25;;;;;;;5.70;2.78;;;;;;;;;;5051569;28;20506;-69
2024/01/21 08:46:11;;;;;;;7.32;3.22;;;;;;;;;;5052195;28;20063;-69
2024/01/21 08:48:57;;;;;;;3.88;2.28;;;;;;;;;;5053507;28;20476;-69
2024/01/21 08:51:42;;;;;;;5.50;2.47;;;;;;;;;;5038143;28;20426;-69
2024/01/21 08:54:28;;;;;;;4.03;2.33;;;;;;;;;;5051996;28;20025;-70
2024/01/21 08:57:14;;;;;;;5.22;2.47;;;;;;;;;;5055143;28;20032;-69
2024/01/21 08:59:59;;;;;;;3.60;2.22;;;;;;;;;;5104475;22;20060;-68
2024/01/21 09:02:45;;;;;;;5.72;2.83;;;;;;;;;;5073744;28;20085;-68
2024/01/21 09:05:31;;;;;;;3.72;2.67;;;;;;;;;;5012723;28;20062;-68
2024/01/21 09:08:17;;;;;;;5.32;2.88;;;;;;;;;;4971068;28;20023;-67
2024/01/21 09:11:03;;;;;;;3.65;2.38;;;;;;;;;;4976053;28;20023;-68
2024/01/21 09:13:49;;;;;;;4.85;2.35;;;;;;;;;;4986321;28;20019;-68
2024/01/21 09:16:35;;;;;;;5.78;2.20;;;;;;;;;;4984131;28;20034;-68
2024/01/21 09:19:21;;;;;;;4.30;2.22;;;;;;;;;;4973320;28;20045;-69
2024/01/21 09:22:07;;;;;;;5.78;2.83;;;;;;;;;;4974395;28;20031;-68
2024/01/21 09:24:52;;;;;;;6.78;2.88;;;;;;;;;;4970866;28;20072;-68
2024/01/21 09:27:38;;;;;;;6.13;2.47;;;;;;;;;;4971008;28;20408;-69
2024/01/21 09:30:24;;;;;;;4.07;2.80;;;;;;;;;;4970881;28;20031;-68
2024/01/21 09:33:10;;;;;;;6.03;3.30;;;;;;;;;;4975588;28;20054;-68
2024/01/21 09:35:56;;;;;;;4.20;1.80;;;;;;;;;;4971103;28;20031;-67
2024/01/21 09:38:42;;;;;;;4.45;2.20;;;;;;;;;;4970708;28;20106;-68
2024/01/21 09:41:39;;;;;;;6.20;3.05;;;;;;;;;;4973386;28;20042;-68
2024/01/21 09:44:27;;;;;;;5.57;2.60;;;;;;;;;;4973602;28;20400;-67
2024/01/21 09:47:13;;;;;;;4.47;3.03;;;;;;;;;;4971458;28;20023;-67
2024/01/21 09:49:58;;;;;;;4.88;2.25;;;;;;;;;;4983850;28;20023;-68
2024/01/21 09:52:44;;;;;;;3.63;2.20;;;;;;;;;;4987380;28;20080;-68
2024/01/21 09:55:30;;;;;;;5.32;2.58;;;;;;;;;;4972667;28;20479;-68
2024/01/21 09:58:16;;;;;;;5.82;2.40;;;;;;;;;;4970293;28;20038;-68
2024/01/21 10:01:02;;;;;;;5.68;2.80;;;;;;;;;;4985017;28;20083;-68
2024/01/21 10:03:47;;;;;;;4.63;2.40;;;;;;;;;;4987505;28;20128;-67
2024/01/21 10:06:34;;;;;;;5.95;2.55;;;;;;;;;;4982440;28;20042;-68
2024/01/21 10:09:21;;;;;;;3.97;2.20;;;;;;;;;;4983977;28;20026;-68
2024/01/21 10:12:07;;;;;;;4.93;2.15;;;;;;;;;;4983274;28;20114;-67
2024/01/21 10:14:53;;;;;;;8.88;3.00;;;;;;;;;;4969924;28;20015;-68
2024/01/21 10:17:38;;;;;;;5.43;3.20;;;;;;;;;;4970626;28;20027;-67
2024/01/21 10:20:24;;;;;;;3.45;2.35;;;;;;;;;;4970198;28;20450;-69
2024/01/21 10:23:11;;;;;;;5.57;2.88;;;;;;;;;;4973616;28;20061;-68
2024/01/21 10:25:57;;;;;;;5.57;2.40;;;;;;;;;;4969246;28;20496;-67
2024/01/21 10:28:42;;;;;;;3.33;2.10;;;;;;;;;;4990146;28;20030;-68
2024/01/21 10:31:28;;;;;;;4.97;2.65;;;;;;;;;;4987866;28;20524;-67
2024/01/21 10:34:13;;;;;;;8.13;2.95;;;;;;;;;;4978204;28;20033;-68
2024/01/21 10:37:03;;;;;;;6.88;2.88;;;;;;;;;;4995113;28;20050;-68
2024/01/21 10:39:49;;;;;;;5.30;2.78;;;;;;;;;;4982995;28;20058;-68
2024/01/21 10:42:34;;;;;;;4.07;2.25;;;;;;;;;;4973012;28;20038;-67
2024/01/21 10:45:22;;;;;;;7.90;3.00;;;;;;;;;;4993336;28;20082;-68
2024/01/21 10:48:08;;;;;;;4.60;2.35;;;;;;;;;;5063455;28;20090;-67
2024/01/21 10:50:54;;;;;;;8.10;2.28;;;;;;;;;;4986266;28;20113;-68
2024/01/21 10:53:41;;;;;;;5.70;3.65;;;;;;;;;;4992597;28;20490;-68
2024/01/21 10:56:27;;;;;;;4.45;2.95;;;;;;;;;;4986536;28;20030;-68
2024/01/21 10:59:13;;;;;;;4.00;2.25;;;;;;;;;;4991899;28;20037;-67
2024/01/21 11:02:00;;;;;;;4.20;2.30;;;;;;;;;;4989877;28;20041;-68
2024/01/21 11:04:46;;;;;;;7.45;3.95;;;;;;;;;;4986561;28;20026;-68
2024/01/21 11:07:32;;;;;;;8.45;2.55;;;;;;;;;;4954535;28;20114;-68
2024/01/21 11:10:18;;;;;;;4.90;2.00;;;;;;;;;;4969207;28;20027;-68
2024/01/21 11:13:06;;;;;;;5.20;2.85;;;;;;;;;;4972303;28;20485;-68
2024/01/21 11:15:52;;;;;;;5.30;3.08;;;;;;;;;;4973118;28;20499;-68
2024/01/21 11:18:38;;;;;;;5.40;2.70;;;;;;;;;;4972927;28;20110;-67
2024/01/21 11:21:25;;;;;;;6.90;3.50;;;;;;;;;;4973137;28;20051;-68
2024/01/21 11:24:13;;;;;;;7.50;2.72;;;;;;;;;;4973759;28;20031;-68
2024/01/21 11:26:59;;;;;;;6.22;3.00;;;;;;;;;;4973019;28;20019;-68
2024/01/21 11:29:44;;;;;;;6.70;3.45;;;;;;;;;;4972710;28;20029;-68
2024/01/21 11:32:31;;;;;;;9.65;4.15;;;;;;;;;;4975703;28;20076;-68
2024/01/21 11:35:17;;;;;;;9.20;3.78;;;;;;;;;;4975124;28;20019;-68
2024/01/21 11:38:02;;;;;;;9.25;3.42;;;;;;;;;;4970827;28;20037;-68
2024/01/21 11:41:00;;;;;;;8.50;3.50;;;;;;;;;;4976408;28;20035;-68
2024/01/21 11:43:46;;;;;;;6.88;3.22;;;;;;;;;;4974249;28;20400;-68
2024/01/21 11:46:32;;;;;;;10.95;4.55;;;;;;;;;;4985183;28;20042;-68
2024/01/21 11:49:19;;;;;;;8.43;3.40;;;;;;;;;;4986757;28;20134;-68
2024/01/21 11:52:05;;;;;;;13.23;3.08;;;;;;;;;;4971880;28;20026;-68
2024/01/21 11:54:51;;;;;;;9.88;3.20;;;;;;;;;;4975712;28;20019;-68
2024/01/21 11:57:37;;;;;;;8.68;3.88;;;;;;;;;;4976620;28;20042;-68
2024/01/21 12:00:22;;;;;;;7.97;3.58;;;;;;;;;;4991315;28;20433;-68
2024/01/21 12:03:08;;;;;;;6.97;4.45;;;;;;;;;;4990985;28;20573;-67
2024/01/21 12:05:54;;;;;;;7.72;3.17;;;;;;;;;;4978580;28;20034;-68
2024/01/21 12:08:41;;;;;;;13.63;4.72;;;;;;;;;;4975573;28;20034;-68
2024/01/21 12:11:31;;;;;;;7.60;3.80;;;;;;;;;;4974959;28;20023;-68
2024/01/21 12:14:16;;;;;;;9.00;3.53;;;;;;;;;;4980576;28;20041;-68
2024/01/21 12:17:03;;;;;;;8.13;3.65;;;;;;;;;;4971199;28;20373;-68
2024/01/21 12:19:49;;;;;;;10.20;4.60;;;;;;;;;;4972838;28;20092;-69
2024/01/21 12:22:39;;;;;;;8.10;4.47;;;;;;;;;;4989649;28;20463;-67
2024/01/21 12:25:25;;;;;;;7.55;4.20;;;;;;;;;;4975135;28;20023;-68
2024/01/21 12:28:11;;;;;;;7.85;4.55;;;;;;;;;;4974650;28;20515;-68
2024/01/21 12:30:58;;;;;;;6.80;3.85;;;;;;;;;;4970954;28;20039;-68
2024/01/21 12:33:43;;;;;;;10.77;4.50;;;;;;;;;;4977013;28;20030;-67
2024/01/21 12:36:33;;;;;;;14.80;5.38;;;;;;;;;;4990514;28;20380;-68
2024/01/21 12:39:21;;;;;;;9.73;5.28;;;;;;;;;;4982586;28;20393;-68
2024/01/21 12:42:06;;;;;;;11.60;5.32;;;;;;;;;;4983553;28;20019;-67
2024/01/21 12:44:52;;;;;;;12.50;5.97;;;;;;;;;;4976143;28;20045;-67
2024/01/21 12:47:39;;;;;;;16.90;4.88;;;;;;;;;;4976986;28;20117;-69
2024/01/21 12:50:25;;;;;;;8.13;4.43;;;;;;;;;;4973505;28;20030;-71
2024/01/21 12:53:10;;;;;;;10.02;5.55;;;;;;;;;;4990646;28;20054;-68
2024/01/21 12:55:56;;;;;;;17.63;5.13;;;;;;;;;;4964420;28;20450;-69
2024/01/21 12:58:41;;;;;;;16.83;5.13;;;;;;;;;;4951811;28;20023;-69
2024/01/21 13:01:27;;;;;;;10.55;5.53;;;;;;;;;;4976127;28;20033;-72
2024/01/21 13:04:13;;;;;;;12.32;4.40;;;;;;;;;;4974538;28;20403;-73
2024/01/21 13:06:59;;;;;;;8.02;5.18;;;;;;;;;;4966774;28;20031;-72
2024/01/21 13:09:45;;;;;;;17.77;5.35;;;;;;;;;;4969468;28;20110;-72
2024/01/21 13:12:33;;;;;;;15.43;5.20;;;;;;;;;;4989226;28;20555;-72
2024/01/21 13:15:20;;;;;;;25.27;6.00;;;;;;;;;;4963565;28;20027;-72
2024/01/21 13:18:06;;;;;;;13.95;5.68;;;;;;;;;;4955393;28;20105;-71
2024/01/21 13:20:52;;;;;;;12.35;5.35;;;;;;;;;;4958489;28;20030;-72
2024/01/21 13:23:37;;;;;;;8.73;5.47;;;;;;;;;;4972594;28;20092;-71
2024/01/21 13:26:25;;;;;;;14.38;6.45;;;;;;;;;;4976014;28;20034;-72
2024/01/21 13:32:20;;;;;;;10.35;4.78;;;;;;;;;;4982053;28;20045;-71
2024/01/21 13:35:06;;;;;;;14.98;4.60;;;;;;;;;;4984438;28;20026;-71
2024/01/21 13:37:52;;;;;;;9.57;4.50;;;;;;;;;;4990100;28;20022;-70
2024/01/21 13:40:37;;;;;;;18.13;6.05;;;;;;;;;;4971368;28;20026;-71
2024/01/21 13:43:23;;;;;;;21.75;6.40;;;;;;;;;;4971208;28;20031;-72
2024/01/21 13:46:08;;;;;;;11.80;5.32;;;;;;;;;;4971104;28;20065;-69
2024/01/21 13:48:54;;;;;;;9.68;4.88;;;;;;;;;;4971510;28;20042;-68
2024/01/21 13:51:40;;;;;;;15.38;7.22;;;;;;;;;;4973828;28;20034;-69
2024/01/21 13:54:25;;;;;;;16.35;6.90;;;;;;;;;;4970081;28;20030;-69
2024/01/21 13:57:11;;;;;;;19.38;7.10;;;;;;;;;;4971316;28;20054;-68
2024/01/21 13:59:57;;;;;;;11.63;6.10;;;;;;;;;;4970218;28;20030;-68
2024/01/21 14:02:42;;;;;;;15.95;6.10;;;;;;;;;;4971331;28;20051;-68
2024/01/21 14:05:28;;;;;;;14.65;5.55;;;;;;;;;;4970242;28;20031;-68
2024/01/21 14:08:14;;;;;;;14.57;5.93;;;;;;;;;;4970962;28;20031;-68
2024/01/21 14:11:00;;;;;;;14.60;6.38;;;;;;;;;;4971455;28;20411;-68
2024/01/21 14:13:45;;;;;;;12.57;7.57;;;;;;;;;;4973170;28;20087;-67
2024/01/21 14:16:31;;;;;;;17.23;6.40;;;;;;;;;;4978973;28;20678;-67
2024/01/21 14:19:16;;;;;;;16.10;7.40;;;;;;;;;;4993868;28;20492;-67
2024/01/21 14:22:02;;;;;;;15.10;6.78;;;;;;;;;;4989630;28;20048;-68
2024/01/21 14:24:49;;;;;;;12.23;6.45;;;;;;;;;;4991792;28;20450;-68
2024/01/21 14:27:35;;;;;;;19.67;8.18;;;;;;;;;;4994240;28;20079;-68
2024/01/21 14:30:25;;;;;;;15.60;6.07;;;;;;;;;;4993565;28;20022;-67
2024/01/21 14:33:10;;;;;;;19.63;6.50;;;;;;;;;;5043629;28;20032;-67
2024/01/21 14:35:56;;;;;;;19.95;6.80;;;;;;;;;;5074611;28;20028;-67
2024/01/21 14:38:42;;;;;;;13.40;6.90;;;;;;;;;;5001351;28;20407;-68
2024/01/21 14:41:27;;;;;;;16.33;6.45;;;;;;;;;;4979964;28;20285;-67
2024/01/21 14:44:13;;;;;;;14.13;6.57;;;;;;;;;;4972574;28;20030;-67
2024/01/21 14:46:59;;;;;;;15.30;7.10;;;;;;;;;;4977631;28;20018;-67
2024/01/21 14:49:45;;;;;;;17.63;6.20;;;;;;;;;;4954054;28;20447;-67
2024/01/21 14:52:31;;;;;;;12.55;6.63;;;;;;;;;;4952266;28;20027;-66
2024/01/21 14:55:16;;;;;;;15.88;6.95;;;;;;;;;;4965993;28;20023;-69
2024/01/21 14:58:02;;;;;;;14.00;6.85;;;;;;;;;;4969840;28;20031;-68
2024/01/21 15:00:48;;;;;;;17.83;8.68;;;;;;;;;;4964465;28;20062;-68
2024/01/21 15:03:33;;;;;;;9.25;5.57;;;;;;;;;;4982148;28;20038;-68
2024/01/21 15:06:20;;;;;;;12.02;7.68;;;;;;;;;;4984110;28;20045;-68
2024/01/21 15:09:07;;;;;;;20.75;7.40;;;;;;;;;;4981935;28;20087;-68
2024/01/21 15:11:52;;;;;;;15.18;7.28;;;;;;;;;;4979720;28;20142;-67
2024/01/21 15:14:41;;;;;;;15.80;6.57;;;;;;;;;;4973270;28;20061;-68
2024/01/21 15:17:27;;;;;;;13.93;6.07;;;;;;;;;;4982378;28;20030;-67
2024/01/21 15:20:12;;;;;;;18.52;7.78;;;;;;;;;;4979561;28;20040;-68
2024/01/21 15:22:58;;;;;;;23.08;7.47;;;;;;;;;;4974644;28;20023;-68
2024/01/21 15:25:44;;;;;;;20.98;8.40;;;;;;;;;;4973454;28;20031;-68
2024/01/21 15:28:30;;;;;;;20.77;6.80;;;;;;;;;;4973467;28;20046;-68
2024/01/21 15:31:15;;;;;;;19.63;7.35;;;;;;;;;;4972754;28;20500;-68
2024/01/21 15:34:01;;;;;;;23.45;9.57;;;;;;;;;;4983890;28;20050;-68
2024/01/21 15:36:49;;;;;;;12.90;5.85;;;;;;;;;;4976273;28;20392;-68
2024/01/21 15:39:34;;;;;;;16.00;8.10;;;;;;;;;;4963543;28;20035;-68
2024/01/21 15:42:20;;;;;;;18.45;8.80;;;;;;;;;;4964699;28;20500;-68
2024/01/21 15:45:09;;;;;;;19.00;8.30;;;;;;;;;;4963967;28;20023;-69
2024/01/21 15:47:55;;;;;;;23.58;9.20;;;;;;;;;;4966508;28;20031;-69
2024/01/21 15:50:41;;;;;;;22.55;9.02;;;;;;;;;;4962674;28;20023;-69
2024/01/21 15:53:26;;;;;;;19.17;9.57;;;;;;;;;;4961674;28;20033;-69
2024/01/21 15:56:12;;;;;;;22.95;9.20;;;;;;;;;;4971608;28;20026;-68
2024/01/21 15:59:00;;;;;;;20.80;8.88;;;;;;;;;;4970811;28;20023;-69
2024/01/21 16:01:45;;;;;;;20.15;8.07;;;;;;;;;;4967467;28;20464;-69
2024/01/21 16:04:31;;;;;;;23.70;9.80;;;;;;;;;;4974090;28;20026;-68
2024/01/21 16:07:21;;;;;;;20.98;9.02;;;;;;;;;;4973520;28;20086;-68
2024/01/21 16:10:08;;;;;;;19.58;8.63;;;;;;;;;;4973337;28;20105;-68
2024/01/21 16:12:53;;;;;;;17.75;8.38;;;;;;;;;;4973777;28;20023;-68
2024/01/21 16:15:39;;;;;;;20.95;9.63;;;;;;;;;;4973243;28;20022;-68
2024/01/21 16:18:25;;;;;;;21.20;9.63;;;;;;;;;;4972697;28;20614;-69
2024/01/21 16:21:11;;;;;;;17.67;8.00;;;;;;;;;;4985727;28;20027;-69
2024/01/21 16:23:57;;;;;;;20.45;9.63;;;;;;;;;;4971524;28;20018;-68
2024/01/21 16:26:42;;;;;;;17.85;8.48;;;;;;;;;;4973553;28;20023;-68
2024/01/21 16:29:30;;;;;;;19.60;7.43;;;;;;;;;;4972295;28;20022;-68
2024/01/21 16:32:16;;;;;;;16.67;8.07;;;;;;;;;;4972727;28;20092;-68